sensor_id;sensor_type;location;lat;lon;timestamp;P1;durP1;ratioP1;P2;durP2;ratioP2
46377;SDS011;32083;47.360;9.650;2022-12-18T00:01:57;53.75;;;30.02;;
46377;SDS011;32083;47.360;9.650;2022-12-18T00:04:24;53.05;;;29.55;;
46377;SDS011;32083;47.360;9.650;2022-12-18T00:06:51;54.85;;;27.58;;
46377;SDS011;32083;47.360;9.650;2022-12-18T00:09:18;49.30;;;27.40;;
46377;SDS011;32083;47.360;9.650;2022-12-18T00:11:44;46.00;;;26.83;;
46377;SDS011;32083;47.360;9.650;2022-12-18T00:14:11;58.97;;;34.58;;
46377;SDS011;32083;47.360;9.650;2022-12-18T00:16:38;51.45;;;26.55;;
46377;SDS011;32083;47.360;9.650;2022-12-18T00:19:04;56.47;;;30.25;;
46377;SDS011;32083;47.360;9.650;2022-12-18T00:21:31;50.13;;;27.63;;
46377;SDS011;32083;47.360;9.650;2022-12-18T00:23:58;48.40;;;30.35;;
46377;SDS011;32083;47.360;9.650;2022-12-18T00:26:25;55.30;;;32.08;;
46377;SDS011;32083;47.360;9.650;2022-12-18T00:29:00;47.55;;;26.80;;
46377;SDS011;32083;47.360;9.650;2022-12-18T00:31:28;50.53;;;25.85;;
46377;SDS011;32083;47.360;9.650;2022-12-18T00:33:54;54.50;;;29.85;;
46377;SDS011;32083;47.360;9.650;2022-12-18T00:36:22;50.58;;;27.17;;
46377;SDS011;32083;47.360;9.650;2022-12-18T00:38:51;45.10;;;25.70;;
46377;SDS011;32083;47.360;9.650;2022-12-18T00:41:18;42.70;;;25.70;;
46377;SDS011;32083;47.360;9.650;2022-12-18T00:44:03;45.25;;;26.95;;
46377;SDS011;32083;47.360;9.650;2022-12-18T00:46:30;45.22;;;25.92;;
46377;SDS011;32083;47.360;9.650;2022-12-18T00:48:56;44.60;;;25.02;;
46377;SDS011;32083;47.360;9.650;2022-12-18T00:51:22;45.70;;;25.20;;
46377;SDS011;32083;47.360;9.650;2022-12-18T00:53:48;46.28;;;26.52;;
46377;SDS011;32083;47.360;9.650;2022-12-18T00:56:14;42.08;;;22.80;;
46377;SDS011;32083;47.360;9.650;2022-12-18T00:58:40;41.30;;;25.15;;
46377;SDS011;32083;47.360;9.650;2022-12-18T01:01:05;48.10;;;26.38;;
46377;SDS011;32083;47.360;9.650;2022-12-18T01:03:32;46.85;;;24.45;;
46377;SDS011;32083;47.360;9.650;2022-12-18T01:05:58;47.05;;;23.58;;
46377;SDS011;32083;47.360;9.650;2022-12-18T01:08:23;42.20;;;25.15;;
46377;SDS011;32083;47.360;9.650;2022-12-18T01:10:50;46.90;;;25.58;;
46377;SDS011;32083;47.360;9.650;2022-12-18T01:13:15;48.85;;;24.88;;
46377;SDS011;32083;47.360;9.650;2022-12-18T01:15:47;63.88;;;30.15;;
46377;SDS011;32083;47.360;9.650;2022-12-18T01:18:14;111.93;;;34.28;;
46377;SDS011;32083;47.360;9.650;2022-12-18T01:20:39;87.78;;;31.08;;
46377;SDS011;32083;47.360;9.650;2022-12-18T01:23:05;122.63;;;39.05;;
46377;SDS011;32083;47.360;9.650;2022-12-18T01:25:31;66.43;;;30.92;;
46377;SDS011;32083;47.360;9.650;2022-12-18T01:27:57;112.63;;;38.35;;
46377;SDS011;32083;47.360;9.650;2022-12-18T01:30:22;145.23;;;41.03;;
46377;SDS011;32083;47.360;9.650;2022-12-18T01:32:48;197.65;;;43.80;;
46377;SDS011;32083;47.360;9.650;2022-12-18T01:35:14;128.82;;;37.95;;
46377;SDS011;32083;47.360;9.650;2022-12-18T01:37:40;168.38;;;38.67;;
46377;SDS011;32083;47.360;9.650;2022-12-18T01:40:05;183.60;;;44.47;;
46377;SDS011;32083;47.360;9.650;2022-12-18T01:42:32;115.78;;;40.55;;
46377;SDS011;32083;47.360;9.650;2022-12-18T01:50:11;204.35;;;38.53;;
46377;SDS011;32083;47.360;9.650;2022-12-18T01:52:41;138.70;;;41.08;;
46377;SDS011;32083;47.360;9.650;2022-12-18T01:55:09;93.15;;;34.60;;
46377;SDS011;32083;47.360;9.650;2022-12-18T01:57:35;155.43;;;42.30;;
46377;SDS011;32083;47.360;9.650;2022-12-18T02:00:06;76.95;;;30.42;;
46377;SDS011;32083;47.360;9.650;2022-12-18T02:02:34;149.07;;;38.10;;
46377;SDS011;32083;47.360;9.650;2022-12-18T02:05:00;469.48;;;78.50;;
46377;SDS011;32083;47.360;9.650;2022-12-18T02:10:26;181.30;;;38.38;;
46377;SDS011;32083;47.360;9.650;2022-12-18T02:15:46;67.78;;;29.40;;
46377;SDS011;32083;47.360;9.650;2022-12-18T02:18:21;154.02;;;40.72;;
46377;SDS011;32083;47.360;9.650;2022-12-18T02:23:47;58.53;;;30.45;;
46377;SDS011;32083;47.360;9.650;2022-12-18T02:26:28;55.40;;;27.17;;
46377;SDS011;32083;47.360;9.650;2022-12-18T02:29:10;63.63;;;32.88;;
46377;SDS011;32083;47.360;9.650;2022-12-18T02:31:45;75.18;;;34.08;;
46377;SDS011;32083;47.360;9.650;2022-12-18T02:34:18;59.00;;;28.90;;
46377;SDS011;32083;47.360;9.650;2022-12-18T02:36:46;73.32;;;29.63;;
46377;SDS011;32083;47.360;9.650;2022-12-18T02:39:14;67.88;;;32.05;;
46377;SDS011;32083;47.360;9.650;2022-12-18T02:41:42;238.02;;;53.22;;
46377;SDS011;32083;47.360;9.650;2022-12-18T02:44:10;88.68;;;35.90;;
46377;SDS011;32083;47.360;9.650;2022-12-18T02:46:41;110.07;;;38.08;;
46377;SDS011;32083;47.360;9.650;2022-12-18T02:57:34;74.60;;;32.05;;
46377;SDS011;32083;47.360;9.650;2022-12-18T03:03:06;57.95;;;28.83;;
46377;SDS011;32083;47.360;9.650;2022-12-18T03:05:52;64.07;;;30.35;;
46377;SDS011;32083;47.360;9.650;2022-12-18T03:08:23;61.08;;;30.50;;
46377;SDS011;32083;47.360;9.650;2022-12-18T03:10:57;65.55;;;31.55;;
46377;SDS011;32083;47.360;9.650;2022-12-18T03:13:34;63.45;;;28.42;;
46377;SDS011;32083;47.360;9.650;2022-12-18T03:16:08;60.17;;;30.33;;
46377;SDS011;32083;47.360;9.650;2022-12-18T03:18:47;64.68;;;29.60;;
46377;SDS011;32083;47.360;9.650;2022-12-18T03:21:20;67.18;;;30.58;;
46377;SDS011;32083;47.360;9.650;2022-12-18T03:23:50;73.70;;;32.53;;
46377;SDS011;32083;47.360;9.650;2022-12-18T03:26:19;69.88;;;31.70;;
46377;SDS011;32083;47.360;9.650;2022-12-18T03:28:50;78.43;;;36.85;;
46377;SDS011;32083;47.360;9.650;2022-12-18T03:31:18;61.90;;;31.45;;
46377;SDS011;32083;47.360;9.650;2022-12-18T03:33:51;68.68;;;33.67;;
46377;SDS011;32083;47.360;9.650;2022-12-18T03:36:22;65.70;;;30.98;;
46377;SDS011;32083;47.360;9.650;2022-12-18T03:38:49;61.75;;;29.67;;
46377;SDS011;32083;47.360;9.650;2022-12-18T03:41:27;59.42;;;32.35;;
46377;SDS011;32083;47.360;9.650;2022-12-18T03:44:09;57.20;;;30.70;;
46377;SDS011;32083;47.360;9.650;2022-12-18T03:46:46;58.10;;;29.35;;
46377;SDS011;32083;47.360;9.650;2022-12-18T03:49:27;62.53;;;29.77;;
46377;SDS011;32083;47.360;9.650;2022-12-18T03:52:02;70.60;;;32.93;;
46377;SDS011;32083;47.360;9.650;2022-12-18T03:54:38;65.25;;;31.02;;
46377;SDS011;32083;47.360;9.650;2022-12-18T03:57:19;69.40;;;31.38;;
46377;SDS011;32083;47.360;9.650;2022-12-18T03:59:47;64.35;;;30.05;;
46377;SDS011;32083;47.360;9.650;2022-12-18T04:02:16;67.15;;;29.90;;
46377;SDS011;32083;47.360;9.650;2022-12-18T04:04:42;62.95;;;29.98;;
46377;SDS011;32083;47.360;9.650;2022-12-18T04:07:10;66.35;;;30.13;;
46377;SDS011;32083;47.360;9.650;2022-12-18T04:09:38;68.60;;;30.23;;
46377;SDS011;32083;47.360;9.650;2022-12-18T04:12:06;69.28;;;32.45;;
46377;SDS011;32083;47.360;9.650;2022-12-18T04:14:33;66.50;;;30.20;;
46377;SDS011;32083;47.360;9.650;2022-12-18T04:17:00;62.47;;;31.95;;
46377;SDS011;32083;47.360;9.650;2022-12-18T04:19:27;66.60;;;30.67;;
46377;SDS011;32083;47.360;9.650;2022-12-18T04:21:53;65.90;;;30.40;;
46377;SDS011;32083;47.360;9.650;2022-12-18T04:24:19;63.28;;;29.15;;
46377;SDS011;32083;47.360;9.650;2022-12-18T04:26:44;78.50;;;33.85;;
46377;SDS011;32083;47.360;9.650;2022-12-18T04:29:10;73.20;;;30.98;;
46377;SDS011;32083;47.360;9.650;2022-12-18T04:31:36;75.70;;;30.60;;
46377;SDS011;32083;47.360;9.650;2022-12-18T04:34:01;70.65;;;31.70;;
46377;SDS011;32083;47.360;9.650;2022-12-18T04:36:27;74.25;;;31.65;;
46377;SDS011;32083;47.360;9.650;2022-12-18T04:38:53;72.50;;;32.45;;
46377;SDS011;32083;47.360;9.650;2022-12-18T04:41:19;62.75;;;28.15;;
46377;SDS011;32083;47.360;9.650;2022-12-18T04:43:45;63.13;;;27.95;;
46377;SDS011;32083;47.360;9.650;2022-12-18T04:46:10;58.55;;;28.65;;
46377;SDS011;32083;47.360;9.650;2022-12-18T04:48:36;64.00;;;26.83;;
46377;SDS011;32083;47.360;9.650;2022-12-18T04:51:03;59.83;;;27.83;;
46377;SDS011;32083;47.360;9.650;2022-12-18T04:53:30;61.08;;;26.40;;
46377;SDS011;32083;47.360;9.650;2022-12-18T04:56:06;58.38;;;27.23;;
46377;SDS011;32083;47.360;9.650;2022-12-18T04:58:35;56.03;;;26.20;;
46377;SDS011;32083;47.360;9.650;2022-12-18T05:01:01;64.75;;;27.42;;
46377;SDS011;32083;47.360;9.650;2022-12-18T05:03:28;60.53;;;25.83;;
46377;SDS011;32083;47.360;9.650;2022-12-18T05:05:54;49.40;;;22.92;;
46377;SDS011;32083;47.360;9.650;2022-12-18T05:08:20;55.38;;;26.25;;
46377;SDS011;32083;47.360;9.650;2022-12-18T05:10:46;51.15;;;25.70;;
46377;SDS011;32083;47.360;9.650;2022-12-18T05:13:11;47.65;;;24.52;;
46377;SDS011;32083;47.360;9.650;2022-12-18T05:15:37;45.97;;;23.90;;
46377;SDS011;32083;47.360;9.650;2022-12-18T05:18:03;50.50;;;23.33;;
46377;SDS011;32083;47.360;9.650;2022-12-18T05:20:29;44.92;;;25.30;;
46377;SDS011;32083;47.360;9.650;2022-12-18T05:22:55;51.30;;;25.33;;
46377;SDS011;32083;47.360;9.650;2022-12-18T05:25:22;57.78;;;28.70;;
46377;SDS011;32083;47.360;9.650;2022-12-18T05:27:48;46.08;;;22.30;;
46377;SDS011;32083;47.360;9.650;2022-12-18T05:30:14;46.90;;;23.77;;
46377;SDS011;32083;47.360;9.650;2022-12-18T05:32:40;41.03;;;21.60;;
46377;SDS011;32083;47.360;9.650;2022-12-18T05:35:07;44.35;;;24.02;;
46377;SDS011;32083;47.360;9.650;2022-12-18T05:37:34;40.58;;;20.85;;
46377;SDS011;32083;47.360;9.650;2022-12-18T05:40:00;48.92;;;24.42;;
46377;SDS011;32083;47.360;9.650;2022-12-18T05:42:26;44.83;;;23.20;;
46377;SDS011;32083;47.360;9.650;2022-12-18T05:44:51;38.47;;;21.95;;
46377;SDS011;32083;47.360;9.650;2022-12-18T05:47:17;44.22;;;21.55;;
46377;SDS011;32083;47.360;9.650;2022-12-18T05:49:43;43.38;;;21.83;;
46377;SDS011;32083;47.360;9.650;2022-12-18T05:52:08;44.53;;;23.52;;
46377;SDS011;32083;47.360;9.650;2022-12-18T05:54:34;39.17;;;19.25;;
46377;SDS011;32083;47.360;9.650;2022-12-18T05:57:00;43.13;;;22.80;;
46377;SDS011;32083;47.360;9.650;2022-12-18T05:59:26;37.08;;;20.27;;
46377;SDS011;32083;47.360;9.650;2022-12-18T06:01:51;43.60;;;23.05;;
46377;SDS011;32083;47.360;9.650;2022-12-18T06:04:17;38.00;;;20.50;;
46377;SDS011;32083;47.360;9.650;2022-12-18T06:06:43;39.38;;;19.00;;
46377;SDS011;32083;47.360;9.650;2022-12-18T06:09:08;41.42;;;19.95;;
46377;SDS011;32083;47.360;9.650;2022-12-18T06:11:38;39.60;;;21.70;;
46377;SDS011;32083;47.360;9.650;2022-12-18T06:14:04;40.28;;;20.73;;
46377;SDS011;32083;47.360;9.650;2022-12-18T06:16:30;43.53;;;22.77;;
46377;SDS011;32083;47.360;9.650;2022-12-18T06:18:57;42.97;;;24.45;;
46377;SDS011;32083;47.360;9.650;2022-12-18T06:21:23;45.35;;;23.90;;
46377;SDS011;32083;47.360;9.650;2022-12-18T06:23:49;46.33;;;22.35;;
46377;SDS011;32083;47.360;9.650;2022-12-18T06:26:14;44.00;;;23.50;;
46377;SDS011;32083;47.360;9.650;2022-12-18T06:28:41;45.17;;;22.25;;
46377;SDS011;32083;47.360;9.650;2022-12-18T06:31:07;44.33;;;23.05;;
46377;SDS011;32083;47.360;9.650;2022-12-18T06:33:34;51.13;;;24.95;;
46377;SDS011;32083;47.360;9.650;2022-12-18T06:36:01;49.35;;;24.23;;
46377;SDS011;32083;47.360;9.650;2022-12-18T06:38:32;37.53;;;21.50;;
46377;SDS011;32083;47.360;9.650;2022-12-18T06:40:59;46.28;;;22.58;;
46377;SDS011;32083;47.360;9.650;2022-12-18T06:43:25;39.40;;;19.92;;
46377;SDS011;32083;47.360;9.650;2022-12-18T06:45:51;38.05;;;19.77;;
46377;SDS011;32083;47.360;9.650;2022-12-18T06:48:25;35.95;;;19.85;;
46377;SDS011;32083;47.360;9.650;2022-12-18T06:50:50;34.90;;;18.45;;
46377;SDS011;32083;47.360;9.650;2022-12-18T06:53:16;35.83;;;21.00;;
46377;SDS011;32083;47.360;9.650;2022-12-18T06:55:42;32.50;;;18.65;;
46377;SDS011;32083;47.360;9.650;2022-12-18T06:58:08;35.45;;;19.45;;
46377;SDS011;32083;47.360;9.650;2022-12-18T07:00:33;36.03;;;18.17;;
46377;SDS011;32083;47.360;9.650;2022-12-18T07:02:59;38.20;;;19.98;;
46377;SDS011;32083;47.360;9.650;2022-12-18T07:05:25;29.77;;;17.35;;
46377;SDS011;32083;47.360;9.650;2022-12-18T07:07:50;34.47;;;17.95;;
46377;SDS011;32083;47.360;9.650;2022-12-18T07:10:16;34.63;;;16.58;;
46377;SDS011;32083;47.360;9.650;2022-12-18T07:12:42;39.10;;;19.23;;
46377;SDS011;32083;47.360;9.650;2022-12-18T07:15:07;37.17;;;19.40;;
46377;SDS011;32083;47.360;9.650;2022-12-18T07:17:34;35.67;;;18.90;;
46377;SDS011;32083;47.360;9.650;2022-12-18T07:19:59;38.83;;;18.70;;
46377;SDS011;32083;47.360;9.650;2022-12-18T07:22:25;33.03;;;18.27;;
46377;SDS011;32083;47.360;9.650;2022-12-18T07:24:51;33.78;;;19.17;;
46377;SDS011;32083;47.360;9.650;2022-12-18T07:27:17;42.42;;;22.75;;
46377;SDS011;32083;47.360;9.650;2022-12-18T07:29:42;35.88;;;17.75;;
46377;SDS011;32083;47.360;9.650;2022-12-18T07:32:08;35.45;;;20.40;;
46377;SDS011;32083;47.360;9.650;2022-12-18T07:34:34;39.92;;;20.10;;
46377;SDS011;32083;47.360;9.650;2022-12-18T07:36:59;38.15;;;20.95;;
46377;SDS011;32083;47.360;9.650;2022-12-18T07:39:25;41.78;;;19.48;;
46377;SDS011;32083;47.360;9.650;2022-12-18T07:41:51;43.00;;;20.30;;
46377;SDS011;32083;47.360;9.650;2022-12-18T07:44:35;41.88;;;18.90;;
46377;SDS011;32083;47.360;9.650;2022-12-18T07:47:02;40.65;;;20.05;;
46377;SDS011;32083;47.360;9.650;2022-12-18T07:49:28;40.95;;;19.48;;
46377;SDS011;32083;47.360;9.650;2022-12-18T07:51:55;36.85;;;19.08;;
46377;SDS011;32083;47.360;9.650;2022-12-18T07:54:24;35.53;;;19.58;;
46377;SDS011;32083;47.360;9.650;2022-12-18T07:56:51;40.30;;;19.63;;
46377;SDS011;32083;47.360;9.650;2022-12-18T07:59:17;40.15;;;18.63;;
46377;SDS011;32083;47.360;9.650;2022-12-18T08:01:47;42.63;;;21.42;;
46377;SDS011;32083;47.360;9.650;2022-12-18T08:04:16;41.65;;;21.20;;
46377;SDS011;32083;47.360;9.650;2022-12-18T08:06:46;48.35;;;23.55;;
46377;SDS011;32083;47.360;9.650;2022-12-18T08:09:14;54.78;;;26.17;;
46377;SDS011;32083;47.360;9.650;2022-12-18T08:11:39;44.55;;;21.77;;
46377;SDS011;32083;47.360;9.650;2022-12-18T08:14:07;46.42;;;23.73;;
46377;SDS011;32083;47.360;9.650;2022-12-18T08:16:34;54.13;;;25.83;;
46377;SDS011;32083;47.360;9.650;2022-12-18T08:19:04;49.78;;;24.10;;
46377;SDS011;32083;47.360;9.650;2022-12-18T08:21:41;46.72;;;24.08;;
46377;SDS011;32083;47.360;9.650;2022-12-18T08:24:08;50.92;;;23.30;;
46377;SDS011;32083;47.360;9.650;2022-12-18T08:26:38;55.63;;;26.38;;
46377;SDS011;32083;47.360;9.650;2022-12-18T08:29:06;54.50;;;24.95;;
46377;SDS011;32083;47.360;9.650;2022-12-18T08:31:35;55.75;;;23.33;;
46377;SDS011;32083;47.360;9.650;2022-12-18T08:37:20;48.70;;;23.75;;
46377;SDS011;32083;47.360;9.650;2022-12-18T08:39:48;53.92;;;26.40;;
46377;SDS011;32083;47.360;9.650;2022-12-18T08:42:14;50.40;;;23.23;;
46377;SDS011;32083;47.360;9.650;2022-12-18T08:44:58;44.38;;;21.40;;
46377;SDS011;32083;47.360;9.650;2022-12-18T08:47:24;40.80;;;23.15;;
46377;SDS011;32083;47.360;9.650;2022-12-18T08:49:51;45.70;;;24.17;;
46377;SDS011;32083;47.360;9.650;2022-12-18T08:52:16;39.53;;;20.85;;
46377;SDS011;32083;47.360;9.650;2022-12-18T08:55:00;40.75;;;21.08;;
46377;SDS011;32083;47.360;9.650;2022-12-18T08:57:29;44.03;;;20.95;;
46377;SDS011;32083;47.360;9.650;2022-12-18T09:00:14;39.85;;;21.30;;
46377;SDS011;32083;47.360;9.650;2022-12-18T09:06:19;47.28;;;23.23;;
46377;SDS011;32083;47.360;9.650;2022-12-18T09:08:45;47.20;;;24.58;;
46377;SDS011;32083;47.360;9.650;2022-12-18T09:11:19;45.65;;;22.25;;
46377;SDS011;32083;47.360;9.650;2022-12-18T09:13:50;48.10;;;23.08;;
46377;SDS011;32083;47.360;9.650;2022-12-18T09:16:19;49.72;;;23.88;;
46377;SDS011;32083;47.360;9.650;2022-12-18T09:18:46;43.08;;;19.98;;
46377;SDS011;32083;47.360;9.650;2022-12-18T09:21:16;47.90;;;22.67;;
46377;SDS011;32083;47.360;9.650;2022-12-18T09:23:48;41.70;;;21.52;;
46377;SDS011;32083;47.360;9.650;2022-12-18T09:26:15;47.17;;;23.85;;
46377;SDS011;32083;47.360;9.650;2022-12-18T09:28:42;43.28;;;20.30;;
46377;SDS011;32083;47.360;9.650;2022-12-18T09:31:09;47.47;;;21.30;;
46377;SDS011;32083;47.360;9.650;2022-12-18T09:33:36;37.38;;;20.73;;
46377;SDS011;32083;47.360;9.650;2022-12-18T09:36:04;48.92;;;22.63;;
46377;SDS011;32083;47.360;9.650;2022-12-18T09:38:31;45.20;;;23.38;;
46377;SDS011;32083;47.360;9.650;2022-12-18T09:41:05;53.20;;;25.10;;
46377;SDS011;32083;47.360;9.650;2022-12-18T09:43:49;45.78;;;20.10;;
46377;SDS011;32083;47.360;9.650;2022-12-18T09:46:31;45.28;;;21.23;;
46377;SDS011;32083;47.360;9.650;2022-12-18T09:49:02;46.25;;;21.63;;
46377;SDS011;32083;47.360;9.650;2022-12-18T09:51:36;40.25;;;19.85;;
46377;SDS011;32083;47.360;9.650;2022-12-18T09:54:07;44.53;;;23.00;;
46377;SDS011;32083;47.360;9.650;2022-12-18T09:56:40;44.80;;;19.60;;
46377;SDS011;32083;47.360;9.650;2022-12-18T09:59:16;48.33;;;20.98;;
46377;SDS011;32083;47.360;9.650;2022-12-18T10:01:49;37.42;;;19.20;;
46377;SDS011;32083;47.360;9.650;2022-12-18T10:04:15;41.65;;;21.30;;
46377;SDS011;32083;47.360;9.650;2022-12-18T10:06:43;39.67;;;21.60;;
46377;SDS011;32083;47.360;9.650;2022-12-18T10:18:23;38.85;;;20.88;;
46377;SDS011;32083;47.360;9.650;2022-12-18T10:21:14;43.70;;;20.23;;
46377;SDS011;32083;47.360;9.650;2022-12-18T10:24:14;39.22;;;18.65;;
46377;SDS011;32083;47.360;9.650;2022-12-18T10:26:52;29.48;;;17.15;;
46377;SDS011;32083;47.360;9.650;2022-12-18T10:29:21;36.97;;;18.13;;
46377;SDS011;32083;47.360;9.650;2022-12-18T10:31:47;29.83;;;17.17;;
46377;SDS011;32083;47.360;9.650;2022-12-18T10:34:16;31.05;;;16.48;;
46377;SDS011;32083;47.360;9.650;2022-12-18T10:36:42;37.53;;;20.08;;
46377;SDS011;32083;47.360;9.650;2022-12-18T10:44:11;32.08;;;16.77;;
46377;SDS011;32083;47.360;9.650;2022-12-18T10:46:41;30.75;;;16.98;;
46377;SDS011;32083;47.360;9.650;2022-12-18T10:49:18;32.28;;;18.38;;
46377;SDS011;32083;47.360;9.650;2022-12-18T10:52:17;34.53;;;17.48;;
46377;SDS011;32083;47.360;9.650;2022-12-18T10:54:47;34.25;;;18.23;;
46377;SDS011;32083;47.360;9.650;2022-12-18T10:59:54;32.50;;;19.17;;
46377;SDS011;32083;47.360;9.650;2022-12-18T11:02:38;32.50;;;17.27;;
46377;SDS011;32083;47.360;9.650;2022-12-18T11:07:52;32.13;;;17.38;;
46377;SDS011;32083;47.360;9.650;2022-12-18T11:10:22;28.60;;;16.90;;
46377;SDS011;32083;47.360;9.650;2022-12-18T11:13:11;29.85;;;16.02;;
46377;SDS011;32083;47.360;9.650;2022-12-18T11:15:42;34.03;;;17.23;;
46377;SDS011;32083;47.360;9.650;2022-12-18T11:20:51;26.33;;;15.65;;
46377;SDS011;32083;47.360;9.650;2022-12-18T11:23:24;24.60;;;14.52;;
46377;SDS011;32083;47.360;9.650;2022-12-18T11:25:52;31.52;;;15.88;;
46377;SDS011;32083;47.360;9.650;2022-12-18T11:33:54;35.03;;;18.05;;
46377;SDS011;32083;47.360;9.650;2022-12-18T11:36:29;35.58;;;19.55;;
46377;SDS011;32083;47.360;9.650;2022-12-18T11:39:05;32.38;;;18.55;;
46377;SDS011;32083;47.360;9.650;2022-12-18T11:41:45;40.53;;;19.52;;
46377;SDS011;32083;47.360;9.650;2022-12-18T11:49:52;36.97;;;20.02;;
46377;SDS011;32083;47.360;9.650;2022-12-18T11:54:56;40.70;;;22.98;;
46377;SDS011;32083;47.360;9.650;2022-12-18T11:57:37;46.97;;;23.08;;
46377;SDS011;32083;47.360;9.650;2022-12-18T12:05:39;38.33;;;20.00;;
46377;SDS011;32083;47.360;9.650;2022-12-18T12:10:47;44.65;;;21.85;;
46377;SDS011;32083;47.360;9.650;2022-12-18T12:16:18;39.13;;;21.10;;
46377;SDS011;32083;47.360;9.650;2022-12-18T12:21:41;40.10;;;22.08;;
46377;SDS011;32083;47.360;9.650;2022-12-18T12:30:07;41.00;;;20.73;;
46377;SDS011;32083;47.360;9.650;2022-12-18T12:40:23;40.03;;;21.90;;
46377;SDS011;32083;47.360;9.650;2022-12-18T12:42:55;40.40;;;21.85;;
46377;SDS011;32083;47.360;9.650;2022-12-18T12:46:21;34.95;;;19.92;;
46377;SDS011;32083;47.360;9.650;2022-12-18T12:51:03;39.97;;;20.92;;
46377;SDS011;32083;47.360;9.650;2022-12-18T12:53:38;37.65;;;20.92;;
46377;SDS011;32083;47.360;9.650;2022-12-18T12:56:06;37.30;;;20.30;;
46377;SDS011;32083;47.360;9.650;2022-12-18T13:01:51;38.40;;;20.33;;
46377;SDS011;32083;47.360;9.650;2022-12-18T13:07:16;41.42;;;21.30;;
46377;SDS011;32083;47.360;9.650;2022-12-18T13:20:44;44.97;;;22.55;;
46377;SDS011;32083;47.360;9.650;2022-12-18T13:36:38;36.72;;;20.30;;
46377;SDS011;32083;47.360;9.650;2022-12-18T13:41:43;35.63;;;19.77;;
46377;SDS011;32083;47.360;9.650;2022-12-18T13:44:33;37.10;;;19.80;;
46377;SDS011;32083;47.360;9.650;2022-12-18T13:46:59;35.17;;;19.15;;
46377;SDS011;32083;47.360;9.650;2022-12-18T13:49:37;31.75;;;18.73;;
46377;SDS011;32083;47.360;9.650;2022-12-18T13:52:16;31.52;;;18.05;;
46377;SDS011;32083;47.360;9.650;2022-12-18T13:54:51;30.20;;;16.92;;
46377;SDS011;32083;47.360;9.650;2022-12-18T13:57:26;40.42;;;21.58;;
46377;SDS011;32083;47.360;9.650;2022-12-18T13:59:53;42.03;;;21.77;;
46377;SDS011;32083;47.360;9.650;2022-12-18T14:02:23;38.90;;;20.58;;
46377;SDS011;32083;47.360;9.650;2022-12-18T14:04:52;44.90;;;23.27;;
46377;SDS011;32083;47.360;9.650;2022-12-18T14:07:20;37.65;;;23.17;;
46377;SDS011;32083;47.360;9.650;2022-12-18T14:09:50;38.70;;;21.70;;
46377;SDS011;32083;47.360;9.650;2022-12-18T14:15:19;38.63;;;21.45;;
46377;SDS011;32083;47.360;9.650;2022-12-18T14:17:50;30.30;;;18.55;;
46377;SDS011;32083;47.360;9.650;2022-12-18T14:20:32;34.08;;;19.77;;
46377;SDS011;32083;47.360;9.650;2022-12-18T14:22:59;35.85;;;18.75;;
46377;SDS011;32083;47.360;9.650;2022-12-18T14:25:29;35.47;;;19.85;;
46377;SDS011;32083;47.360;9.650;2022-12-18T14:30:39;35.07;;;21.60;;
46377;SDS011;32083;47.360;9.650;2022-12-18T14:35:39;36.08;;;19.90;;
46377;SDS011;32083;47.360;9.650;2022-12-18T14:38:33;32.92;;;19.55;;
46377;SDS011;32083;47.360;9.650;2022-12-18T14:43:32;38.58;;;20.83;;
46377;SDS011;32083;47.360;9.650;2022-12-18T14:46:00;35.55;;;21.10;;
46377;SDS011;32083;47.360;9.650;2022-12-18T14:48:40;34.13;;;20.95;;
46377;SDS011;32083;47.360;9.650;2022-12-18T14:53:44;34.10;;;19.45;;
46377;SDS011;32083;47.360;9.650;2022-12-18T14:56:47;32.33;;;17.85;;
46377;SDS011;32083;47.360;9.650;2022-12-18T14:59:13;32.70;;;19.25;;
46377;SDS011;32083;47.360;9.650;2022-12-18T15:01:45;33.75;;;18.27;;
46377;SDS011;32083;47.360;9.650;2022-12-18T15:04:29;30.95;;;19.20;;
46377;SDS011;32083;47.360;9.650;2022-12-18T15:07:12;31.60;;;17.10;;
46377;SDS011;32083;47.360;9.650;2022-12-18T15:10:02;32.65;;;18.00;;
46377;SDS011;32083;47.360;9.650;2022-12-18T15:23:25;32.78;;;19.77;;
46377;SDS011;32083;47.360;9.650;2022-12-18T15:28:31;36.17;;;20.52;;
46377;SDS011;32083;47.360;9.650;2022-12-18T15:31:06;39.72;;;22.67;;
46377;SDS011;32083;47.360;9.650;2022-12-18T15:36:23;36.58;;;21.02;;
46377;SDS011;32083;47.360;9.650;2022-12-18T15:38:50;38.05;;;21.50;;
46377;SDS011;32083;47.360;9.650;2022-12-18T15:41:20;36.78;;;21.40;;
46377;SDS011;32083;47.360;9.650;2022-12-18T15:43:51;40.65;;;21.40;;
46377;SDS011;32083;47.360;9.650;2022-12-18T15:46:18;37.03;;;20.58;;
46377;SDS011;32083;47.360;9.650;2022-12-18T15:48:47;35.83;;;21.13;;
46377;SDS011;32083;47.360;9.650;2022-12-18T15:51:16;42.10;;;22.90;;
46377;SDS011;32083;47.360;9.650;2022-12-18T15:54:10;37.40;;;22.35;;
46377;SDS011;32083;47.360;9.650;2022-12-18T15:56:41;38.10;;;21.75;;
46377;SDS011;32083;47.360;9.650;2022-12-18T15:59:26;36.88;;;21.15;;
46377;SDS011;32083;47.360;9.650;2022-12-18T16:01:52;33.88;;;20.38;;
46377;SDS011;32083;47.360;9.650;2022-12-18T16:04:18;38.17;;;22.00;;
46377;SDS011;32083;47.360;9.650;2022-12-18T16:06:46;40.38;;;21.40;;
46377;SDS011;32083;47.360;9.650;2022-12-18T16:09:12;36.78;;;22.13;;
46377;SDS011;32083;47.360;9.650;2022-12-18T16:11:39;38.92;;;21.48;;
46377;SDS011;32083;47.360;9.650;2022-12-18T16:14:18;40.53;;;20.45;;
46377;SDS011;32083;47.360;9.650;2022-12-18T16:16:56;39.03;;;21.35;;
46377;SDS011;32083;47.360;9.650;2022-12-18T16:19:24;35.25;;;20.83;;
46377;SDS011;32083;47.360;9.650;2022-12-18T16:21:51;40.60;;;24.25;;
46377;SDS011;32083;47.360;9.650;2022-12-18T16:24:20;44.05;;;23.90;;
46377;SDS011;32083;47.360;9.650;2022-12-18T16:26:50;44.10;;;24.80;;
46377;SDS011;32083;47.360;9.650;2022-12-18T16:29:19;44.38;;;23.52;;
46377;SDS011;32083;47.360;9.650;2022-12-18T16:31:52;45.13;;;26.58;;
46377;SDS011;32083;47.360;9.650;2022-12-18T16:34:26;41.33;;;23.42;;
46377;SDS011;32083;47.360;9.650;2022-12-18T16:36:57;40.67;;;22.17;;
46377;SDS011;32083;47.360;9.650;2022-12-18T16:39:24;37.72;;;23.58;;
46377;SDS011;32083;47.360;9.650;2022-12-18T16:41:51;43.00;;;23.98;;
46377;SDS011;32083;47.360;9.650;2022-12-18T16:44:17;42.97;;;23.05;;
46377;SDS011;32083;47.360;9.650;2022-12-18T16:46:43;37.75;;;22.60;;
46377;SDS011;32083;47.360;9.650;2022-12-18T16:49:15;51.15;;;23.00;;
46377;SDS011;32083;47.360;9.650;2022-12-18T16:51:42;44.08;;;21.98;;
46377;SDS011;32083;47.360;9.650;2022-12-18T16:54:09;42.83;;;20.63;;
46377;SDS011;32083;47.360;9.650;2022-12-18T16:56:35;43.22;;;24.33;;
46377;SDS011;32083;47.360;9.650;2022-12-18T16:59:01;44.83;;;25.65;;
46377;SDS011;32083;47.360;9.650;2022-12-18T17:01:28;44.97;;;24.83;;
46377;SDS011;32083;47.360;9.650;2022-12-18T17:03:56;49.17;;;28.70;;
46377;SDS011;32083;47.360;9.650;2022-12-18T17:06:24;52.13;;;27.02;;
46377;SDS011;32083;47.360;9.650;2022-12-18T17:08:54;50.10;;;27.05;;
46377;SDS011;32083;47.360;9.650;2022-12-18T17:11:23;51.17;;;25.65;;
46377;SDS011;32083;47.360;9.650;2022-12-18T17:13:49;46.72;;;25.10;;
46377;SDS011;32083;47.360;9.650;2022-12-18T17:16:15;50.30;;;25.45;;
46377;SDS011;32083;47.360;9.650;2022-12-18T17:18:41;41.95;;;23.20;;